Latest Coastal Weather Observations for Coffs Harbour

IDN60701

Issued at 4:04 am EDT Saturday 31 January 2015 (issued every 10 minutes, with the page automatically refreshed every 10 minutes)

About coastal observations | Map of coastal stations | Coastal observations for NSW | Marine services | Other Formats
Station Details ID: 059040 Name: COFFS HARBOUR MO Lat: -30.31 Lon: 153.12 Height: 5.0 m
Data from the previous 72 hours. | See also: Recent months at Coffs Harbour
Date/Time
EDT
Temp

°C
Wind Pressure Rain
since 9am
mm
Weather Cloud Vis
km
Sea
Height
m
Swell
Dir
 
Speed
knots
Gust
knots
hPa Trend Height
m
Period
s
Dir
31/04:00am 19.4 WSW 7 9 1005.7 - 0.0 - - 10 - - - -
31/03:30am 19.2 WSW 7 8 1005.5 - 0.0 - - 10 - - - -
31/03:00am 19.6 WSW 5 7 1005.6 - 0.0 - - 10 - - - -
31/02:30am 19.8 SW 5 6 1005.6 - 0.0 - - 10 - - - -
31/02:00am 20.2 SW 6 7 1006.1 - 0.0 - - 10 - - - -
31/01:30am 20.6 SW 7 8 1006.3 - 0.0 - - 10 - - - -
31/01:00am 21.0 SW 6 8 1006.4 - 0.0 - Partly cloudy 10 - - - -
31/12:30am 21.6 S 3 7 1006.3 - 0.0 - Partly cloudy 10 - - - -
31/12:00am 21.8 S 10 13 1006.8 - 0.0 - Cloudy 9 - - - -
 
Date/Time
EDT
Temp

°C
Wind Pressure Rain
since 9am
mm
Weather Cloud Vis
km
Sea
Height
m
Swell
Dir
 
Speed
knots
Gust
knots
hPa Trend Height
m
Period
s
Dir
30/11:30pm 20.4 W 4 5 1006.6 - 0.0 - - 10 - - - -
30/11:00pm 20.8 WNW 6 7 1006.5 - 0.0 - - 10 - - - -
30/10:30pm 21.1 W 3 5 1006.6 - 0.0 - - 10 - - - -
30/10:00pm 21.4 W 1 4 1006.8 - 0.0 - - 10 - - - -
30/09:30pm 22.1 W 2 4 1006.8 - 0.0 - Partly cloudy 10 - - - -
30/09:00pm 22.7 NNW 5 5 1006.5 - 0.0 - - 10 - - - -
30/08:30pm 23.5 NNE 5 7 1006.3 - 0.0 - - 10 - - - -
30/08:00pm 23.9 NNE 7 8 1006.3 - 0.0 - - 10 - - - -
30/07:30pm 24.5 NNE 9 14 1006.1 - 0.0 - Partly cloudy 10 - - - -
30/07:00pm 24.7 NNE 10 14 1005.6 - 0.0 - Partly cloudy 10 - - - -
30/06:30pm 25.0 NE 11 16 1005.2 - 0.0 - - 10 - - - -
30/06:00pm 25.4 NNE 13 16 1004.9 - 0.0 - Cloudy 10 - - - -
30/05:30pm 24.8 NNE 12 16 1005.0 - 0.0 - - 10 - - - -
30/05:00pm 25.7 NNE 15 19 1004.8 - 0.0 - Partly cloudy 10 - - - -
30/04:30pm 24.9 NNE 16 22 1005.1 - 0.0 - - 10 - - - -
30/04:00pm 25.1 NNE 16 20 1005.3 - 0.0 - Partly cloudy 10 - - - -
30/03:30pm 25.2 NNE 15 21 1005.6 - 0.0 - Partly cloudy 10 - - - -
30/03:00pm 25.6 NNE 17 22 1005.8 - 0.0 - - 10 - - - -
30/02:30pm 25.4 NNE 16 19 1006.1 - 0.0 - - 10 - - - -
30/02:00pm 25.4 NNE 15 19 1006.6 - 0.0 - Partly cloudy 10 - - - -
30/01:30pm 25.8 NE 13 17 1007.1 - 0.0 - Partly cloudy 10 - - - -
30/01:00pm 25.3 NE 14 18 1007.4 - 0.0 - Partly cloudy 10 - - - -
30/12:30pm 25.3 NE 10 14 1007.5 - 0.0 - Partly cloudy 10 - - - -
30/12:00pm 24.5 E 11 15 1007.7 - 0.0 - Cloudy 10 - - - -
30/11:30am 25.4 SE 11 15 1008.0 - 0.0 - Partly cloudy 10 - - - -
30/11:00am 25.1 E 11 14 1008.4 - 0.0 - Partly cloudy 10 - - - -
30/10:30am 24.3 E 9 12 1008.8 - 0.0 - - 10 - - - -
30/10:26am 24.1 E 9 12 1008.8 - 0.0 - - 10 - - - -
30/10:06am 24.0 E 10 13 1008.9 - 0.0 - - 6 - - - -
30/10:00am 24.1 E 9 13 1009.0 - 0.0 - - 10 - - - -
30/09:30am 23.5 ESE 6 8 1009.2 - 0.0 - - 10 - - - -
30/09:00am 23.0 E 4 6 1009.5 - 0.2 - - 10 - - - -
30/08:30am 21.8 CALM 0 0 1009.5 - 0.2 - - 10 - - - -
30/08:00am 20.5 NW 3 4 1009.5 - 0.2 - - 10 - - - -
30/07:30am 18.4 NW 3 5 1009.5 - 0.2 - - 10 - - - -
30/07:00am 16.1 CALM 0 0 1009.4 - 0.2 - - 10 - - - -
30/06:30am 14.9 CALM 0 0 1009.2 - 0.2 - - 10 - - - -
30/06:00am 14.4 NW 3 4 1009.1 - 0.2 - - 10 - - - -
30/05:30am 14.9 CALM 0 0 1008.9 - 0.2 - - 10 - - - -
30/05:00am 15.4 W 3 5 1008.9 - 0.2 - - 10 - - - -
30/04:30am 15.7 NNW 4 5 1008.9 - 0.2 - - 10 - - - -
30/04:00am 15.6 CALM 0 0 1009.0 - 0.2 - - 10 - - - -
30/03:30am 16.8 WSW 5 6 1009.3 - 0.2 - - 10 - - - -
30/03:00am 17.2 W 6 8 1009.5 - 0.2 - - 10 - - - -
30/02:30am 17.9 W 6 8 1009.9 - 0.2 - - 10 - - - -
30/02:00am 18.3 WSW 7 10 1010.3 - 0.2 - - 10 - - - -
30/01:30am 18.7 WSW 9 12 1010.5 - 0.2 - Partly cloudy 10 - - - -
30/01:00am 18.7 WSW 8 9 1010.8 - 0.2 - Partly cloudy 10 - - - -
30/12:30am 18.9 SW 9 11 1011.1 - 0.2 - - 10 - - - -
30/12:00am 19.1 WSW 7 9 1011.3 - 0.2 - - 10 - - - -
 
Date/Time
EDT
Temp

°C
Wind Pressure Rain
since 9am
mm
Weather Cloud Vis
km
Sea
Height
m
Swell
Dir
 
Speed
knots
Gust
knots
hPa Trend Height
m
Period
s
Dir
29/11:30pm 19.5 SW 8 11 1011.2 - 0.2 - - 10 - - - -
29/11:00pm 19.6 SW 8 10 1011.1 - 0.2 - Partly cloudy 10 - - - -
29/10:30pm 20.1 SW 8 11 1011.1 - 0.2 - Partly cloudy 10 - - - -
29/10:00pm 20.5 SW 10 13 1011.0 - 0.2 - Partly cloudy 10 - - - -
29/09:30pm 20.9 WSW 8 11 1010.9 - 0.2 - Partly cloudy 10 - - - -
29/09:00pm 21.5 SW 9 11 1010.6 - 0.2 - Cloudy 10 - - - -
29/08:30pm 22.7 S 13 18 1010.3 - 0.2 - Partly cloudy 10 - - - -
29/08:00pm 22.7 S 14 19 1009.9 - 0.2 - Partly cloudy 10 - - - -
29/07:30pm 22.8 S 13 17 1009.6 - 0.2 - Partly cloudy 10 - - - -
29/07:00pm 23.0 S 14 17 1009.1 - 0.2 - Partly cloudy 10 - - - -
29/06:30pm 23.1 S 13 17 1008.7 - 0.2 - Partly cloudy 10 - - - -
29/06:00pm 23.3 S 14 18 1008.3 - 0.2 - Cloudy 10 - - - -
29/05:30pm 23.6 S 14 18 1008.2 - 0.2 - Partly cloudy 10 - - - -
29/05:00pm 24.2 SSE 15 19 1008.1 - 0.2 - Partly cloudy 10 - - - -
29/04:30pm 24.1 S 14 17 1008.0 - 0.2 - Partly cloudy 10 - - - -
29/04:00pm 24.1 SSE 15 19 1008.0 - 0.2 - - 10 - - - -
29/03:30pm 24.7 SSE 16 22 1008.1 - 0.2 - - 10 - - - -
29/03:00pm 25.4 SSE 15 21 1008.0 S 0.2 Fine Partly cloudy 40 - - - -
29/02:30pm 25.2 SSE 16 21 1008.1 - 0.2 - Partly cloudy 10 - - - -
29/02:00pm 25.2 SSE 14 18 1008.4 - 0.2 - Partly cloudy 10 - - - -
29/01:30pm 25.1 SSE 14 18 1008.7 - 0.2 - Partly cloudy 10 - - - -
29/01:00pm 25.0 S 15 18 1009.1 - 0.2 - Partly cloudy 10 - - - -
29/12:30pm 25.7 S 15 19 1009.3 - 0.2 - Mostly clear 10 - - - -
29/12:00pm 25.4 S 15 20 1009.5 R 0.2 Fine Mostly clear 40 - - - -
29/11:30am 24.8 S 13 18 1009.6 - 0.2 - Mostly clear 10 - - - -
29/11:00am 24.7 SSW 14 20 1009.7 - 0.2 - Mostly clear 10 - - - -
29/10:30am 23.8 SW 13 18 1009.9 - 0.2 - Mostly clear 10 - - - -
29/10:00am 23.0 SW 11 20 1009.9 - 0.2 - Mostly clear 10 - - - -
29/09:30am 21.9 SW 12 17 1010.0 - 0.2 - Mostly clear 10 - - - -
29/09:00am 21.4 SW 13 18 1010.0 R 0.2 Fine Mostly cloudy 30 - - - -
29/08:30am 21.0 SW 15 20 1010.0 - 0.2 - Mostly clear 10 - - - -
29/08:00am 21.3 SW 13 17 1009.9 - 0.2 - Mostly clear 10 - - - -
29/07:30am 19.9 SW 12 17 1009.7 - 0.2 - - 10 - - - -
29/07:00am 18.8 SW 10 14 1009.3 - 0.2 - - 10 - - - -
29/06:30am 18.1 SW 11 15 1009.1 - 0.2 - - 10 - - - -
29/06:00am 18.0 SW 10 14 1008.7 F 0.2 Fine Mostly clear 30 - - - -
29/05:30am 18.2 SW 12 18 1008.4 - 0.2 - - 10 - - - -
29/05:00am 18.4 SW 12 15 1008.2 - 0.2 - - 10 - - - -
29/04:30am 18.7 SW 13 17 1008.1 - 0.2 - - 10 - - - -
29/04:00am 18.9 SW 15 20 1008.2 - 0.2 - - 10 - - - -
29/03:30am 19.3 SW 13 19 1008.2 - 0.2 - - 10 - - - -
29/03:00am 19.3 SW 15 22 1008.5 - 0.2 - - 10 - - - -
29/02:30am 19.4 SW 14 18 1008.6 - 0.2 - - 10 - - - -
29/02:00am 19.5 SW 15 20 1008.9 - 0.2 - - 10 - - - -
29/01:30am 19.3 SW 16 21 1009.2 - 0.2 - - 10 - - - -
29/01:00am 19.3 SW 15 21 1009.5 - 0.2 - - 10 - - - -
29/12:30am 19.2 SW 14 21 1009.7 - 0.2 - - 10 - - - -
29/12:00am 19.4 SW 15 18 1009.8 - 0.2 - - 10 - - - -
 
Date/Time
EDT
Temp

°C
Wind Pressure Rain
since 9am
mm
Weather Cloud Vis
km
Sea
Height
m
Swell
Dir
 
Speed
knots
Gust
knots
hPa Trend Height
m
Period
s
Dir
28/11:30pm 19.7 SW 16 21 1010.0 - 0.2 - - 10 - - - -
28/11:00pm 19.9 SW 15 19 1010.1 - 0.2 - Partly cloudy 10 - - - -
28/10:30pm 20.1 SW 14 18 1010.2 - 0.2 - Partly cloudy 10 - - - -
28/10:00pm 20.0 SW 12 16 1010.2 - 0.2 - Partly cloudy 10 - - - -
28/09:30pm 19.8 SW 13 16 1009.9 - 0.2 - Partly cloudy 10 - - - -
28/09:00pm 20.1 SW 12 17 1010.0 - 0.2 - Cloudy 10 - - - -
28/08:30pm 19.9 SW 12 16 1009.8 - 0.2 - Partly cloudy 10 - - - -
28/08:00pm 19.6 SW 11 14 1009.6 - 0.2 - Partly cloudy 10 - - - -
28/07:30pm 19.8 WSW 12 16 1009.3 - 0.2 - - 10 - - - -
28/07:00pm 20.4 SW 15 20 1009.1 - 0.2 - Partly cloudy 10 - - - -
28/06:30pm 21.5 WSW 13 17 1008.7 - 0.2 - Partly cloudy 10 - - - -
28/06:00pm 21.9 SW 13 17 1008.5 - 0.2 - Cloudy 10 - - - -
28/05:30pm 22.1 SW 13 18 1008.2 - 0.2 - Partly cloudy 10 - - - -
28/05:00pm 23.2 WSW 13 18 1008.0 - 0.2 - Partly cloudy 10 - - - -
28/04:30pm 23.1 SW 15 22 1008.4 - 0.2 - Partly cloudy 10 - - - -
28/04:00pm 22.5 SW 14 18 1008.6 - 0.2 - Partly cloudy 10 - - - -
28/03:00pm 21.5 SW 14 19 1008.8 R 0.2 Fine Cloudy 20 - - - -
28/02:30pm 20.9 SW 11 16 1009.1 - 0.2 Drizzle Partly cloudy 8 - - - -
28/02:00pm 21.0 SW 14 18 1009.3 - 0.2 - Mostly clear 10 - - - -
28/01:30pm 20.8 SW 15 19 1009.3 - 0.2 - Partly cloudy 10 - - - -
28/01:00pm 21.3 SSW 17 24 1009.4 - 0.2 - Partly cloudy 10 - - - -
28/12:30pm 21.9 SSW 18 24 1009.1 - 0.2 - Mostly cloudy 10 - - - -
28/12:00pm 22.8 SW 14 19 1009.0 R 0.0 Fine Cloudy 20 - - - -
28/11:30am 22.4 SW 15 20 1009.1 - 0.0 - Mostly clear 10 - - - -
28/11:00am 22.2 SW 16 20 1009.0 - 0.0 - Partly cloudy 10 - - - -
28/10:30am 21.1 WSW 14 19 1008.9 - 0.0 - Partly cloudy 10 - - - -
28/10:00am 20.2 SW 15 21 1009.0 - 0.0 - Partly cloudy 10 - - - -
28/09:30am 20.0 WSW 14 18 1008.9 - 0.0 - Partly cloudy 10 - - - -
28/09:00am 19.9 SW 11 17 1008.8 R 21.0 Fine Cloudy 20 - - - -
28/08:30am 19.9 SW 11 17 1008.8 - 21.0 - Partly cloudy 10 - - - -
28/08:00am 19.6 WSW 12 17 1008.6 - 21.0 - Mostly clear 10 - - - -
28/07:30am 19.2 SW 12 15 1008.3 - 21.0 - Mostly clear 10 - - - -
28/07:00am 19.1 WSW 13 19 1007.7 - 21.0 - Partly cloudy 10 - - - -
28/06:30am 18.7 SW 10 14 1007.5 - 21.0 - Mostly clear 10 - - - -
28/06:00am 18.2 WSW 13 18 1007.3 F 21.0 Fine Cloudy 20 - - - -
28/05:30am 17.9 SSW 8 9 1007.2 - 21.0 - Partly cloudy 10 - - - -
28/05:00am 17.6 WSW 12 18 1007.3 - 21.0 - Partly cloudy 10 - - - -
28/04:30am 17.6 SW 7 12 1007.3 - 21.0 - Partly cloudy 10 - - - -

Other Formats:

Comma delimited format used in spreadsheet applications
http://www.bom.gov.au/fwo/IDN60701/IDN60701.94791.axf

JavaScript Object Notation format (JSON) in row-major order
http://www.bom.gov.au/fwo/IDN60701/IDN60701.94791.json